sensor_id;sensor_type;location;lat;lon;timestamp;temperature;humidity
52555;DHT22;38455;52.710;6.502;2023-08-06T00:00:24;14.90;99.90
52555;DHT22;38455;52.710;6.502;2023-08-06T00:02:50;14.90;99.90
52555;DHT22;38455;52.710;6.502;2023-08-06T00:05:16;15.00;99.90
52555;DHT22;38455;52.710;6.502;2023-08-06T00:07:50;15.00;99.90
52555;DHT22;38455;52.710;6.502;2023-08-06T00:10:17;14.90;99.90
52555;DHT22;38455;52.710;6.502;2023-08-06T00:12:43;14.90;99.90
52555;DHT22;38455;52.710;6.502;2023-08-06T00:15:10;14.90;99.90
52555;DHT22;38455;52.710;6.502;2023-08-06T00:17:36;14.90;99.90
52555;DHT22;38455;52.710;6.502;2023-08-06T00:20:03;14.80;99.90
52555;DHT22;38455;52.710;6.502;2023-08-06T00:22:35;14.80;99.90
52555;DHT22;38455;52.710;6.502;2023-08-06T00:25:01;14.80;99.90
52555;DHT22;38455;52.710;6.502;2023-08-06T00:27:27;14.80;99.90
52555;DHT22;38455;52.710;6.502;2023-08-06T00:29:52;14.80;99.90
52555;DHT22;38455;52.710;6.502;2023-08-06T00:32:18;14.70;99.90
52555;DHT22;38455;52.710;6.502;2023-08-06T00:34:44;14.70;99.90
52555;DHT22;38455;52.710;6.502;2023-08-06T00:37:10;14.70;99.90
52555;DHT22;38455;52.710;6.502;2023-08-06T00:39:35;14.70;99.90
52555;DHT22;38455;52.710;6.502;2023-08-06T00:42:01;14.60;99.90
52555;DHT22;38455;52.710;6.502;2023-08-06T00:44:27;14.60;99.90
52555;DHT22;38455;52.710;6.502;2023-08-06T00:46:52;14.60;99.90
52555;DHT22;38455;52.710;6.502;2023-08-06T00:49:18;14.60;99.90
52555;DHT22;38455;52.710;6.502;2023-08-06T00:51:44;14.50;99.90
52555;DHT22;38455;52.710;6.502;2023-08-06T00:54:10;14.50;99.90
52555;DHT22;38455;52.710;6.502;2023-08-06T00:56:37;14.40;99.90
52555;DHT22;38455;52.710;6.502;2023-08-06T00:59:04;14.50;99.90
52555;DHT22;38455;52.710;6.502;2023-08-06T01:01:31;14.40;99.90
52555;DHT22;38455;52.710;6.502;2023-08-06T01:03:56;14.40;99.90
52555;DHT22;38455;52.710;6.502;2023-08-06T01:06:39;14.40;99.90
52555;DHT22;38455;52.710;6.502;2023-08-06T01:09:33;14.40;99.90
52555;DHT22;38455;52.710;6.502;2023-08-06T01:15:10;14.40;99.90
52555;DHT22;38455;52.710;6.502;2023-08-06T01:17:37;14.50;99.90
52555;DHT22;38455;52.710;6.502;2023-08-06T01:20:05;14.40;99.90
52555;DHT22;38455;52.710;6.502;2023-08-06T01:22:31;14.40;99.90
52555;DHT22;38455;52.710;6.502;2023-08-06T01:24:56;14.40;99.90
52555;DHT22;38455;52.710;6.502;2023-08-06T01:30:19;14.40;99.90
52555;DHT22;38455;52.710;6.502;2023-08-06T01:32:49;14.40;99.90
52555;DHT22;38455;52.710;6.502;2023-08-06T01:35:17;14.30;99.90
52555;DHT22;38455;52.710;6.502;2023-08-06T01:37:44;14.30;99.90
52555;DHT22;38455;52.710;6.502;2023-08-06T01:40:11;14.30;99.90
52555;DHT22;38455;52.710;6.502;2023-08-06T01:42:38;14.40;99.90
52555;DHT22;38455;52.710;6.502;2023-08-06T01:45:04;14.40;99.90
52555;DHT22;38455;52.710;6.502;2023-08-06T01:47:30;14.30;99.90
52555;DHT22;38455;52.710;6.502;2023-08-06T01:49:56;14.40;99.90
52555;DHT22;38455;52.710;6.502;2023-08-06T01:52:21;14.40;99.90
52555;DHT22;38455;52.710;6.502;2023-08-06T01:54:47;14.40;99.90
52555;DHT22;38455;52.710;6.502;2023-08-06T01:57:13;14.30;99.90
52555;DHT22;38455;52.710;6.502;2023-08-06T01:59:39;14.30;99.90
52555;DHT22;38455;52.710;6.502;2023-08-06T02:02:04;14.30;99.90
52555;DHT22;38455;52.710;6.502;2023-08-06T02:04:30;14.30;99.90
52555;DHT22;38455;52.710;6.502;2023-08-06T02:06:56;14.40;99.90
52555;DHT22;38455;52.710;6.502;2023-08-06T02:09:21;14.30;99.90
52555;DHT22;38455;52.710;6.502;2023-08-06T02:11:47;14.30;99.90
52555;DHT22;38455;52.710;6.502;2023-08-06T02:14:13;14.30;99.90
52555;DHT22;38455;52.710;6.502;2023-08-06T02:16:38;14.30;99.90
52555;DHT22;38455;52.710;6.502;2023-08-06T02:19:04;14.30;99.90
52555;DHT22;38455;52.710;6.502;2023-08-06T02:21:30;14.30;99.90
52555;DHT22;38455;52.710;6.502;2023-08-06T02:23:55;14.30;99.90
52555;DHT22;38455;52.710;6.502;2023-08-06T02:26:21;14.30;99.90
52555;DHT22;38455;52.710;6.502;2023-08-06T02:28:47;14.30;99.90
52555;DHT22;38455;52.710;6.502;2023-08-06T02:31:12;14.30;99.90
52555;DHT22;38455;52.710;6.502;2023-08-06T02:33:38;14.30;99.90
52555;DHT22;38455;52.710;6.502;2023-08-06T02:36:04;14.20;99.90
52555;DHT22;38455;52.710;6.502;2023-08-06T02:38:31;14.20;99.90
52555;DHT22;38455;52.710;6.502;2023-08-06T02:40:56;14.20;99.90
52555;DHT22;38455;52.710;6.502;2023-08-06T02:43:22;14.20;99.90
52555;DHT22;38455;52.710;6.502;2023-08-06T02:45:48;14.20;99.90
52555;DHT22;38455;52.710;6.502;2023-08-06T02:48:14;14.10;99.90
52555;DHT22;38455;52.710;6.502;2023-08-06T02:50:42;14.10;99.90
52555;DHT22;38455;52.710;6.502;2023-08-06T02:53:08;14.10;99.90
52555;DHT22;38455;52.710;6.502;2023-08-06T02:55:34;14.00;99.90
52555;DHT22;38455;52.710;6.502;2023-08-06T02:58:01;14.00;99.90
52555;DHT22;38455;52.710;6.502;2023-08-06T03:00:27;14.00;99.90
52555;DHT22;38455;52.710;6.502;2023-08-06T03:02:53;14.00;99.90
52555;DHT22;38455;52.710;6.502;2023-08-06T03:05:19;14.00;99.90
52555;DHT22;38455;52.710;6.502;2023-08-06T03:07:44;14.00;99.90
52555;DHT22;38455;52.710;6.502;2023-08-06T03:10:10;14.10;99.90
52555;DHT22;38455;52.710;6.502;2023-08-06T03:12:36;14.10;99.90
52555;DHT22;38455;52.710;6.502;2023-08-06T03:15:01;14.10;99.90
52555;DHT22;38455;52.710;6.502;2023-08-06T03:17:27;14.20;99.90
52555;DHT22;38455;52.710;6.502;2023-08-06T03:19:53;14.10;99.90
52555;DHT22;38455;52.710;6.502;2023-08-06T03:22:18;14.20;99.90
52555;DHT22;38455;52.710;6.502;2023-08-06T03:24:44;14.20;99.90
52555;DHT22;38455;52.710;6.502;2023-08-06T03:27:10;14.20;99.90
52555;DHT22;38455;52.710;6.502;2023-08-06T03:29:35;14.20;99.90
52555;DHT22;38455;52.710;6.502;2023-08-06T03:32:01;14.20;99.90
52555;DHT22;38455;52.710;6.502;2023-08-06T03:34:27;14.30;99.90
52555;DHT22;38455;52.710;6.502;2023-08-06T03:36:53;14.30;99.90
52555;DHT22;38455;52.710;6.502;2023-08-06T03:39:19;14.30;99.90
52555;DHT22;38455;52.710;6.502;2023-08-06T03:41:44;14.30;99.90
52555;DHT22;38455;52.710;6.502;2023-08-06T03:44:10;14.30;99.90
52555;DHT22;38455;52.710;6.502;2023-08-06T03:46:36;14.20;99.90
52555;DHT22;38455;52.710;6.502;2023-08-06T03:49:01;14.20;99.90
52555;DHT22;38455;52.710;6.502;2023-08-06T03:51:27;14.20;99.90
52555;DHT22;38455;52.710;6.502;2023-08-06T03:53:53;14.20;99.90
52555;DHT22;38455;52.710;6.502;2023-08-06T03:56:18;14.20;99.90
52555;DHT22;38455;52.710;6.502;2023-08-06T03:58:44;14.20;99.90
52555;DHT22;38455;52.710;6.502;2023-08-06T04:01:10;14.20;99.90
52555;DHT22;38455;52.710;6.502;2023-08-06T04:03:36;14.20;99.90
52555;DHT22;38455;52.710;6.502;2023-08-06T04:06:04;14.20;99.90
52555;DHT22;38455;52.710;6.502;2023-08-06T04:08:30;14.30;99.90
52555;DHT22;38455;52.710;6.502;2023-08-06T04:10:56;14.30;99.90
52555;DHT22;38455;52.710;6.502;2023-08-06T04:13:21;14.30;99.90
52555;DHT22;38455;52.710;6.502;2023-08-06T04:15:47;14.30;99.90
52555;DHT22;38455;52.710;6.502;2023-08-06T04:18:13;14.30;99.90
52555;DHT22;38455;52.710;6.502;2023-08-06T04:20:45;14.30;99.90
52555;DHT22;38455;52.710;6.502;2023-08-06T04:23:11;14.40;99.90
52555;DHT22;38455;52.710;6.502;2023-08-06T04:25:37;14.30;99.90
52555;DHT22;38455;52.710;6.502;2023-08-06T04:28:03;14.40;99.90
52555;DHT22;38455;52.710;6.502;2023-08-06T04:30:29;14.40;99.90
52555;DHT22;38455;52.710;6.502;2023-08-06T04:32:56;14.40;99.90
52555;DHT22;38455;52.710;6.502;2023-08-06T04:35:22;14.40;99.90
52555;DHT22;38455;52.710;6.502;2023-08-06T04:37:48;14.40;99.90
52555;DHT22;38455;52.710;6.502;2023-08-06T04:40:14;14.40;99.90
52555;DHT22;38455;52.710;6.502;2023-08-06T04:42:39;14.40;99.90
52555;DHT22;38455;52.710;6.502;2023-08-06T04:45:06;14.40;99.90
52555;DHT22;38455;52.710;6.502;2023-08-06T04:47:32;14.50;99.90
52555;DHT22;38455;52.710;6.502;2023-08-06T04:49:57;14.50;99.90
52555;DHT22;38455;52.710;6.502;2023-08-06T04:52:23;14.50;99.90
52555;DHT22;38455;52.710;6.502;2023-08-06T04:54:53;14.50;99.90
52555;DHT22;38455;52.710;6.502;2023-08-06T04:57:18;14.50;99.90
52555;DHT22;38455;52.710;6.502;2023-08-06T04:59:45;14.60;99.90
52555;DHT22;38455;52.710;6.502;2023-08-06T05:02:11;14.60;99.90
52555;DHT22;38455;52.710;6.502;2023-08-06T05:04:36;14.60;99.90
52555;DHT22;38455;52.710;6.502;2023-08-06T05:07:03;14.60;99.90
52555;DHT22;38455;52.710;6.502;2023-08-06T05:09:28;14.70;99.90
52555;DHT22;38455;52.710;6.502;2023-08-06T05:11:54;14.70;99.90
52555;DHT22;38455;52.710;6.502;2023-08-06T05:14:20;14.70;99.90
52555;DHT22;38455;52.710;6.502;2023-08-06T05:16:45;14.80;99.90
52555;DHT22;38455;52.710;6.502;2023-08-06T05:19:11;14.70;99.90
52555;DHT22;38455;52.710;6.502;2023-08-06T05:21:37;14.80;99.90
52555;DHT22;38455;52.710;6.502;2023-08-06T05:24:03;14.80;99.90
52555;DHT22;38455;52.710;6.502;2023-08-06T05:26:28;14.90;99.90
52555;DHT22;38455;52.710;6.502;2023-08-06T05:28:54;14.90;99.90
52555;DHT22;38455;52.710;6.502;2023-08-06T05:31:20;15.00;99.90
52555;DHT22;38455;52.710;6.502;2023-08-06T05:33:45;15.00;99.90
52555;DHT22;38455;52.710;6.502;2023-08-06T05:36:11;15.10;99.90
52555;DHT22;38455;52.710;6.502;2023-08-06T05:38:37;15.10;99.90
52555;DHT22;38455;52.710;6.502;2023-08-06T05:41:02;15.20;99.90
52555;DHT22;38455;52.710;6.502;2023-08-06T05:43:29;15.20;99.90
52555;DHT22;38455;52.710;6.502;2023-08-06T05:45:55;15.20;99.90
52555;DHT22;38455;52.710;6.502;2023-08-06T05:48:21;15.20;99.90
52555;DHT22;38455;52.710;6.502;2023-08-06T05:50:48;15.30;99.90
52555;DHT22;38455;52.710;6.502;2023-08-06T05:53:13;15.30;99.90
52555;DHT22;38455;52.710;6.502;2023-08-06T05:55:39;15.30;99.90
52555;DHT22;38455;52.710;6.502;2023-08-06T05:58:05;15.30;99.90
52555;DHT22;38455;52.710;6.502;2023-08-06T06:00:30;15.40;99.90
52555;DHT22;38455;52.710;6.502;2023-08-06T06:02:56;15.40;99.90
52555;DHT22;38455;52.710;6.502;2023-08-06T06:05:22;15.50;99.90
52555;DHT22;38455;52.710;6.502;2023-08-06T06:07:47;15.50;99.90
52555;DHT22;38455;52.710;6.502;2023-08-06T06:10:13;15.60;99.90
52555;DHT22;38455;52.710;6.502;2023-08-06T06:12:40;15.60;99.90
52555;DHT22;38455;52.710;6.502;2023-08-06T06:15:06;15.60;99.90
52555;DHT22;38455;52.710;6.502;2023-08-06T06:17:32;15.70;99.90
52555;DHT22;38455;52.710;6.502;2023-08-06T06:19:58;15.70;99.90
52555;DHT22;38455;52.710;6.502;2023-08-06T06:22:24;15.70;99.90
52555;DHT22;38455;52.710;6.502;2023-08-06T06:24:49;15.80;99.90
52555;DHT22;38455;52.710;6.502;2023-08-06T06:27:15;15.80;99.90
52555;DHT22;38455;52.710;6.502;2023-08-06T06:29:41;15.80;99.90
52555;DHT22;38455;52.710;6.502;2023-08-06T06:32:07;15.80;99.90
52555;DHT22;38455;52.710;6.502;2023-08-06T06:34:33;15.80;99.90
52555;DHT22;38455;52.710;6.502;2023-08-06T06:36:58;15.80;99.90
52555;DHT22;38455;52.710;6.502;2023-08-06T06:39:24;15.80;99.90
52555;DHT22;38455;52.710;6.502;2023-08-06T06:41:50;15.80;99.90
52555;DHT22;38455;52.710;6.502;2023-08-06T06:44:15;15.90;99.90
52555;DHT22;38455;52.710;6.502;2023-08-06T06:46:41;15.90;99.90
52555;DHT22;38455;52.710;6.502;2023-08-06T06:49:07;16.00;99.90
52555;DHT22;38455;52.710;6.502;2023-08-06T06:51:32;16.00;99.90
52555;DHT22;38455;52.710;6.502;2023-08-06T06:53:58;16.10;99.90
52555;DHT22;38455;52.710;6.502;2023-08-06T06:56:24;16.10;99.90
52555;DHT22;38455;52.710;6.502;2023-08-06T06:58:49;16.10;99.90
52555;DHT22;38455;52.710;6.502;2023-08-06T07:01:15;16.10;99.90
52555;DHT22;38455;52.710;6.502;2023-08-06T07:03:41;16.20;99.90
52555;DHT22;38455;52.710;6.502;2023-08-06T07:06:07;16.20;99.90
52555;DHT22;38455;52.710;6.502;2023-08-06T07:08:33;16.30;99.90
52555;DHT22;38455;52.710;6.502;2023-08-06T07:11:03;16.30;99.90
52555;DHT22;38455;52.710;6.502;2023-08-06T07:13:30;16.30;99.90
52555;DHT22;38455;52.710;6.502;2023-08-06T07:15:55;16.30;99.90
52555;DHT22;38455;52.710;6.502;2023-08-06T07:18:22;16.30;99.90
52555;DHT22;38455;52.710;6.502;2023-08-06T07:20:51;16.40;99.90
52555;DHT22;38455;52.710;6.502;2023-08-06T07:23:21;16.40;99.90
52555;DHT22;38455;52.710;6.502;2023-08-06T07:25:48;16.40;99.90
52555;DHT22;38455;52.710;6.502;2023-08-06T07:28:14;16.50;99.90
52555;DHT22;38455;52.710;6.502;2023-08-06T07:30:41;16.60;99.90
52555;DHT22;38455;52.710;6.502;2023-08-06T07:33:07;16.60;99.90
52555;DHT22;38455;52.710;6.502;2023-08-06T07:35:34;16.60;99.90
52555;DHT22;38455;52.710;6.502;2023-08-06T07:37:59;16.60;99.90
52555;DHT22;38455;52.710;6.502;2023-08-06T07:40:25;16.70;99.90
52555;DHT22;38455;52.710;6.502;2023-08-06T07:42:51;16.70;99.90
52555;DHT22;38455;52.710;6.502;2023-08-06T07:45:17;16.70;99.90
52555;DHT22;38455;52.710;6.502;2023-08-06T07:47:43;16.60;99.90
52555;DHT22;38455;52.710;6.502;2023-08-06T07:50:09;16.80;99.90
52555;DHT22;38455;52.710;6.502;2023-08-06T07:52:35;16.90;99.90
52555;DHT22;38455;52.710;6.502;2023-08-06T07:55:02;16.90;99.90
52555;DHT22;38455;52.710;6.502;2023-08-06T07:57:33;17.10;99.90
52555;DHT22;38455;52.710;6.502;2023-08-06T08:00:00;17.20;99.90
52555;DHT22;38455;52.710;6.502;2023-08-06T08:02:26;17.20;99.90
52555;DHT22;38455;52.710;6.502;2023-08-06T08:04:52;17.20;99.90
52555;DHT22;38455;52.710;6.502;2023-08-06T08:07:18;17.20;99.90
52555;DHT22;38455;52.710;6.502;2023-08-06T08:09:44;17.30;99.90
52555;DHT22;38455;52.710;6.502;2023-08-06T08:12:09;17.30;99.90
52555;DHT22;38455;52.710;6.502;2023-08-06T08:14:35;17.20;99.90
52555;DHT22;38455;52.710;6.502;2023-08-06T08:17:03;17.20;99.90
52555;DHT22;38455;52.710;6.502;2023-08-06T08:19:29;17.20;99.90
52555;DHT22;38455;52.710;6.502;2023-08-06T08:21:55;17.20;99.90
52555;DHT22;38455;52.710;6.502;2023-08-06T08:24:21;17.30;99.90
52555;DHT22;38455;52.710;6.502;2023-08-06T08:26:49;17.40;99.90
52555;DHT22;38455;52.710;6.502;2023-08-06T08:29:16;17.50;99.90
52555;DHT22;38455;52.710;6.502;2023-08-06T08:31:42;17.70;99.90
52555;DHT22;38455;52.710;6.502;2023-08-06T08:34:09;17.80;99.90
52555;DHT22;38455;52.710;6.502;2023-08-06T08:36:34;17.80;99.90
52555;DHT22;38455;52.710;6.502;2023-08-06T08:39:00;17.90;99.90
52555;DHT22;38455;52.710;6.502;2023-08-06T08:41:29;18.10;99.90
52555;DHT22;38455;52.710;6.502;2023-08-06T08:43:55;18.00;99.90
52555;DHT22;38455;52.710;6.502;2023-08-06T08:46:22;18.10;99.90
52555;DHT22;38455;52.710;6.502;2023-08-06T08:48:48;18.30;99.90
52555;DHT22;38455;52.710;6.502;2023-08-06T08:51:15;18.40;99.90
52555;DHT22;38455;52.710;6.502;2023-08-06T08:53:44;18.40;99.90
52555;DHT22;38455;52.710;6.502;2023-08-06T08:56:13;18.40;99.90
52555;DHT22;38455;52.710;6.502;2023-08-06T08:58:39;18.50;99.90
52555;DHT22;38455;52.710;6.502;2023-08-06T09:01:06;18.50;99.90
52555;DHT22;38455;52.710;6.502;2023-08-06T09:03:33;18.60;99.90
52555;DHT22;38455;52.710;6.502;2023-08-06T09:06:02;18.60;99.90
52555;DHT22;38455;52.710;6.502;2023-08-06T09:08:35;18.50;99.90
52555;DHT22;38455;52.710;6.502;2023-08-06T09:11:03;18.50;99.90
52555;DHT22;38455;52.710;6.502;2023-08-06T09:13:30;18.50;99.90
52555;DHT22;38455;52.710;6.502;2023-08-06T09:15:55;18.60;99.90
52555;DHT22;38455;52.710;6.502;2023-08-06T09:18:28;18.70;99.90
52555;DHT22;38455;52.710;6.502;2023-08-06T09:20:54;18.80;99.90
52555;DHT22;38455;52.710;6.502;2023-08-06T09:23:20;18.90;99.90
52555;DHT22;38455;52.710;6.502;2023-08-06T09:25:47;18.80;99.90
52555;DHT22;38455;52.710;6.502;2023-08-06T09:28:12;18.80;99.90
52555;DHT22;38455;52.710;6.502;2023-08-06T09:30:39;18.80;99.90
52555;DHT22;38455;52.710;6.502;2023-08-06T09:33:08;18.80;99.90
52555;DHT22;38455;52.710;6.502;2023-08-06T09:35:39;18.90;99.90
52555;DHT22;38455;52.710;6.502;2023-08-06T09:38:06;18.90;99.90
52555;DHT22;38455;52.710;6.502;2023-08-06T09:40:33;18.90;99.90
52555;DHT22;38455;52.710;6.502;2023-08-06T09:42:59;19.00;99.90
52555;DHT22;38455;52.710;6.502;2023-08-06T09:45:43;19.10;99.90
52555;DHT22;38455;52.710;6.502;2023-08-06T09:48:09;19.30;99.90
52555;DHT22;38455;52.710;6.502;2023-08-06T09:50:37;19.30;99.90
52555;DHT22;38455;52.710;6.502;2023-08-06T09:53:07;19.60;99.90
52555;DHT22;38455;52.710;6.502;2023-08-06T09:55:34;19.80;99.90
52555;DHT22;38455;52.710;6.502;2023-08-06T09:58:00;20.00;99.90
52555;DHT22;38455;52.710;6.502;2023-08-06T10:00:26;19.90;99.90
52555;DHT22;38455;52.710;6.502;2023-08-06T10:02:54;19.90;99.90
52555;DHT22;38455;52.710;6.502;2023-08-06T10:05:22;19.80;99.90
52555;DHT22;38455;52.710;6.502;2023-08-06T10:07:49;19.80;99.90
52555;DHT22;38455;52.710;6.502;2023-08-06T10:10:17;19.70;99.90
52555;DHT22;38455;52.710;6.502;2023-08-06T10:12:52;19.80;99.90
52555;DHT22;38455;52.710;6.502;2023-08-06T10:15:25;20.10;99.90
52555;DHT22;38455;52.710;6.502;2023-08-06T10:17:54;20.40;99.90
52555;DHT22;38455;52.710;6.502;2023-08-06T10:20:23;20.60;99.90
52555;DHT22;38455;52.710;6.502;2023-08-06T10:23:02;21.00;99.90
52555;DHT22;38455;52.710;6.502;2023-08-06T10:25:31;21.20;99.90
52555;DHT22;38455;52.710;6.502;2023-08-06T10:27:58;21.30;99.90
52555;DHT22;38455;52.710;6.502;2023-08-06T10:32:52;20.90;99.90
52555;DHT22;38455;52.710;6.502;2023-08-06T10:35:47;21.00;99.90
52555;DHT22;38455;52.710;6.502;2023-08-06T10:38:21;21.20;99.90
52555;DHT22;38455;52.710;6.502;2023-08-06T10:41:02;21.40;99.90
52555;DHT22;38455;52.710;6.502;2023-08-06T10:43:30;21.70;99.90
52555;DHT22;38455;52.710;6.502;2023-08-06T10:45:58;21.90;99.90
52555;DHT22;38455;52.710;6.502;2023-08-06T10:48:36;22.00;99.90
52555;DHT22;38455;52.710;6.502;2023-08-06T10:51:03;22.10;99.90
52555;DHT22;38455;52.710;6.502;2023-08-06T10:53:30;22.60;99.90
52555;DHT22;38455;52.710;6.502;2023-08-06T10:55:55;22.80;99.90
52555;DHT22;38455;52.710;6.502;2023-08-06T10:58:21;22.70;99.90
52555;DHT22;38455;52.710;6.502;2023-08-06T11:00:47;23.10;99.90
52555;DHT22;38455;52.710;6.502;2023-08-06T11:03:12;23.40;99.90
52555;DHT22;38455;52.710;6.502;2023-08-06T11:05:41;23.30;99.90
52555;DHT22;38455;52.710;6.502;2023-08-06T11:08:23;23.00;99.90
52555;DHT22;38455;52.710;6.502;2023-08-06T11:10:49;22.80;99.90
52555;DHT22;38455;52.710;6.502;2023-08-06T11:13:17;22.50;99.90
52555;DHT22;38455;52.710;6.502;2023-08-06T11:15:45;22.90;99.90
52555;DHT22;38455;52.710;6.502;2023-08-06T11:18:11;23.30;99.90
52555;DHT22;38455;52.710;6.502;2023-08-06T11:20:37;23.40;99.90
52555;DHT22;38455;52.710;6.502;2023-08-06T11:23:03;23.50;99.90
52555;DHT22;38455;52.710;6.502;2023-08-06T11:25:30;23.50;99.90
52555;DHT22;38455;52.710;6.502;2023-08-06T11:27:55;23.90;99.90
52555;DHT22;38455;52.710;6.502;2023-08-06T11:30:21;24.30;99.90
52555;DHT22;38455;52.710;6.502;2023-08-06T11:32:47;24.50;99.90
52555;DHT22;38455;52.710;6.502;2023-08-06T11:35:17;24.40;99.90
52555;DHT22;38455;52.710;6.502;2023-08-06T11:37:46;24.30;99.90
52555;DHT22;38455;52.710;6.502;2023-08-06T11:40:13;23.90;99.90
52555;DHT22;38455;52.710;6.502;2023-08-06T11:42:40;24.10;99.90
52555;DHT22;38455;52.710;6.502;2023-08-06T11:45:06;24.40;99.90
52555;DHT22;38455;52.710;6.502;2023-08-06T11:47:34;24.60;99.90
52555;DHT22;38455;52.710;6.502;2023-08-06T11:50:00;24.50;99.90
52555;DHT22;38455;52.710;6.502;2023-08-06T11:52:26;24.50;99.90
52555;DHT22;38455;52.710;6.502;2023-08-06T11:55:02;24.40;99.90
52555;DHT22;38455;52.710;6.502;2023-08-06T11:57:32;24.70;99.90
52555;DHT22;38455;52.710;6.502;2023-08-06T12:00:04;24.80;99.90
52555;DHT22;38455;52.710;6.502;2023-08-06T12:02:34;25.60;99.90
52555;DHT22;38455;52.710;6.502;2023-08-06T12:05:10;25.40;99.90
52555;DHT22;38455;52.710;6.502;2023-08-06T12:07:41;25.80;99.90
52555;DHT22;38455;52.710;6.502;2023-08-06T12:10:08;26.20;99.90
52555;DHT22;38455;52.710;6.502;2023-08-06T12:12:35;26.00;99.90
52555;DHT22;38455;52.710;6.502;2023-08-06T12:15:01;25.50;99.90
52555;DHT22;38455;52.710;6.502;2023-08-06T12:17:27;25.70;99.90
52555;DHT22;38455;52.710;6.502;2023-08-06T12:19:53;26.50;99.90
52555;DHT22;38455;52.710;6.502;2023-08-06T12:22:19;27.00;99.90
52555;DHT22;38455;52.710;6.502;2023-08-06T12:24:46;27.10;99.90
52555;DHT22;38455;52.710;6.502;2023-08-06T12:27:13;27.60;99.90
52555;DHT22;38455;52.710;6.502;2023-08-06T12:29:48;27.30;99.90
52555;DHT22;38455;52.710;6.502;2023-08-06T12:32:14;26.60;99.90
52555;DHT22;38455;52.710;6.502;2023-08-06T12:34:41;26.10;99.90
52555;DHT22;38455;52.710;6.502;2023-08-06T12:37:08;25.40;99.90
52555;DHT22;38455;52.710;6.502;2023-08-06T12:39:35;24.60;99.90
52555;DHT22;38455;52.710;6.502;2023-08-06T12:42:04;23.90;99.90
52555;DHT22;38455;52.710;6.502;2023-08-06T12:44:30;23.60;99.90
52555;DHT22;38455;52.710;6.502;2023-08-06T12:46:56;23.30;99.90
52555;DHT22;38455;52.710;6.502;2023-08-06T12:49:22;22.90;99.90
52555;DHT22;38455;52.710;6.502;2023-08-06T12:51:49;22.40;99.90
52555;DHT22;38455;52.710;6.502;2023-08-06T12:54:16;22.00;99.90
52555;DHT22;38455;52.710;6.502;2023-08-06T12:56:43;21.80;99.90
52555;DHT22;38455;52.710;6.502;2023-08-06T12:59:08;21.50;99.90
52555;DHT22;38455;52.710;6.502;2023-08-06T13:01:34;21.20;99.90
52555;DHT22;38455;52.710;6.502;2023-08-06T13:04:00;21.00;99.90
52555;DHT22;38455;52.710;6.502;2023-08-06T13:06:25;20.90;99.90
52555;DHT22;38455;52.710;6.502;2023-08-06T13:08:51;20.80;99.90
52555;DHT22;38455;52.710;6.502;2023-08-06T13:11:17;20.80;99.90
52555;DHT22;38455;52.710;6.502;2023-08-06T13:13:44;20.80;99.90
52555;DHT22;38455;52.710;6.502;2023-08-06T13:16:10;20.60;99.90
52555;DHT22;38455;52.710;6.502;2023-08-06T13:18:35;20.60;99.90
52555;DHT22;38455;52.710;6.502;2023-08-06T13:21:01;20.70;99.90
52555;DHT22;38455;52.710;6.502;2023-08-06T13:23:27;20.60;99.90
52555;DHT22;38455;52.710;6.502;2023-08-06T13:25:53;20.70;99.90
52555;DHT22;38455;52.710;6.502;2023-08-06T13:28:19;20.70;99.90
52555;DHT22;38455;52.710;6.502;2023-08-06T13:30:45;20.70;99.90
52555;DHT22;38455;52.710;6.502;2023-08-06T13:33:11;20.70;99.90
52555;DHT22;38455;52.710;6.502;2023-08-06T13:35:37;20.70;99.90
52555;DHT22;38455;52.710;6.502;2023-08-06T13:38:04;20.80;99.90
52555;DHT22;38455;52.710;6.502;2023-08-06T13:40:33;20.80;99.90
52555;DHT22;38455;52.710;6.502;2023-08-06T13:43:00;20.70;99.90
52555;DHT22;38455;52.710;6.502;2023-08-06T13:45:25;20.80;99.90
52555;DHT22;38455;52.710;6.502;2023-08-06T13:47:51;20.80;99.90
52555;DHT22;38455;52.710;6.502;2023-08-06T13:50:17;20.90;99.90
52555;DHT22;38455;52.710;6.502;2023-08-06T13:52:43;20.80;99.90
52555;DHT22;38455;52.710;6.502;2023-08-06T13:55:08;20.70;99.90
52555;DHT22;38455;52.710;6.502;2023-08-06T13:57:34;20.60;99.90
52555;DHT22;38455;52.710;6.502;2023-08-06T14:00:01;20.60;99.90
52555;DHT22;38455;52.710;6.502;2023-08-06T14:02:27;20.60;99.90
52555;DHT22;38455;52.710;6.502;2023-08-06T14:04:53;20.50;99.90
52555;DHT22;38455;52.710;6.502;2023-08-06T14:07:19;20.60;99.90
52555;DHT22;38455;52.710;6.502;2023-08-06T14:09:45;20.60;99.90
52555;DHT22;38455;52.710;6.502;2023-08-06T14:12:12;20.50;99.90
52555;DHT22;38455;52.710;6.502;2023-08-06T14:14:39;20.60;99.90
52555;DHT22;38455;52.710;6.502;2023-08-06T14:17:05;20.60;99.90
52555;DHT22;38455;52.710;6.502;2023-08-06T14:19:30;20.60;99.90
52555;DHT22;38455;52.710;6.502;2023-08-06T14:21:56;20.60;99.90
52555;DHT22;38455;52.710;6.502;2023-08-06T14:24:22;20.70;99.90
52555;DHT22;38455;52.710;6.502;2023-08-06T14:26:48;20.70;99.90
52555;DHT22;38455;52.710;6.502;2023-08-06T14:29:14;20.70;99.90
52555;DHT22;38455;52.710;6.502;2023-08-06T14:31:40;20.80;99.90
52555;DHT22;38455;52.710;6.502;2023-08-06T14:34:06;20.70;99.90
52555;DHT22;38455;52.710;6.502;2023-08-06T14:36:32;20.60;99.90
52555;DHT22;38455;52.710;6.502;2023-08-06T14:38:58;20.50;99.90
52555;DHT22;38455;52.710;6.502;2023-08-06T14:41:23;20.30;99.90
52555;DHT22;38455;52.710;6.502;2023-08-06T14:43:50;20.30;99.90
52555;DHT22;38455;52.710;6.502;2023-08-06T14:46:16;20.20;99.90
52555;DHT22;38455;52.710;6.502;2023-08-06T14:48:41;20.20;99.90
52555;DHT22;38455;52.710;6.502;2023-08-06T14:51:08;20.20;99.90
52555;DHT22;38455;52.710;6.502;2023-08-06T14:53:34;20.10;99.90
52555;DHT22;38455;52.710;6.502;2023-08-06T14:55:59;20.10;99.90
52555;DHT22;38455;52.710;6.502;2023-08-06T14:58:25;20.10;99.90
52555;DHT22;38455;52.710;6.502;2023-08-06T15:00:51;20.10;99.90
52555;DHT22;38455;52.710;6.502;2023-08-06T15:03:16;20.00;99.90
52555;DHT22;38455;52.710;6.502;2023-08-06T15:05:49;19.90;99.90
52555;DHT22;38455;52.710;6.502;2023-08-06T15:08:15;19.80;99.90
52555;DHT22;38455;52.710;6.502;2023-08-06T15:10:41;19.80;99.90
52555;DHT22;38455;52.710;6.502;2023-08-06T15:13:06;19.70;99.90
52555;DHT22;38455;52.710;6.502;2023-08-06T15:15:32;19.60;99.90
52555;DHT22;38455;52.710;6.502;2023-08-06T15:17:58;19.60;99.90
52555;DHT22;38455;52.710;6.502;2023-08-06T15:20:24;19.50;99.90
52555;DHT22;38455;52.710;6.502;2023-08-06T15:22:49;19.40;99.90
52555;DHT22;38455;52.710;6.502;2023-08-06T15:25:15;19.30;99.90
52555;DHT22;38455;52.710;6.502;2023-08-06T15:27:41;19.20;99.90
52555;DHT22;38455;52.710;6.502;2023-08-06T15:30:07;19.00;99.90
52555;DHT22;38455;52.710;6.502;2023-08-06T15:32:33;19.00;99.90
52555;DHT22;38455;52.710;6.502;2023-08-06T15:34:59;18.90;99.90